sensor_id;sensor_type;location;lat;lon;timestamp;temperature;humidity
32139;DHT22;18644;48.700;9.210;2023-02-27T00:00:58;1.70;53.20
32139;DHT22;18644;48.700;9.210;2023-02-27T00:03:26;1.70;53.20
32139;DHT22;18644;48.700;9.210;2023-02-27T00:05:53;1.70;53.20
32139;DHT22;18644;48.700;9.210;2023-02-27T00:08:20;1.60;53.20
32139;DHT22;18644;48.700;9.210;2023-02-27T00:10:48;1.60;53.30
32139;DHT22;18644;48.700;9.210;2023-02-27T00:13:15;1.60;53.30
32139;DHT22;18644;48.700;9.210;2023-02-27T00:15:44;1.60;53.40
32139;DHT22;18644;48.700;9.210;2023-02-27T00:18:13;1.60;53.40
32139;DHT22;18644;48.700;9.210;2023-02-27T00:20:40;1.60;53.40
32139;DHT22;18644;48.700;9.210;2023-02-27T00:23:07;1.60;53.40
32139;DHT22;18644;48.700;9.210;2023-02-27T00:25:35;1.60;53.50
32139;DHT22;18644;48.700;9.210;2023-02-27T00:28:02;1.60;53.50
32139;DHT22;18644;48.700;9.210;2023-02-27T00:30:29;1.60;53.50
32139;DHT22;18644;48.700;9.210;2023-02-27T00:32:56;1.60;53.60
32139;DHT22;18644;48.700;9.210;2023-02-27T00:35:24;1.50;53.60
32139;DHT22;18644;48.700;9.210;2023-02-27T00:37:51;1.60;53.70
32139;DHT22;18644;48.700;9.210;2023-02-27T00:40:19;1.50;53.70
32139;DHT22;18644;48.700;9.210;2023-02-27T00:42:46;1.50;53.70
32139;DHT22;18644;48.700;9.210;2023-02-27T00:45:14;1.50;53.70
32139;DHT22;18644;48.700;9.210;2023-02-27T00:47:40;1.50;53.80
32139;DHT22;18644;48.700;9.210;2023-02-27T00:50:08;1.50;53.80
32139;DHT22;18644;48.700;9.210;2023-02-27T00:52:37;1.50;53.90
32139;DHT22;18644;48.700;9.210;2023-02-27T00:55:05;1.50;53.80
32139;DHT22;18644;48.700;9.210;2023-02-27T00:57:33;1.50;53.90
32139;DHT22;18644;48.700;9.210;2023-02-27T01:00:00;1.50;53.90
32139;DHT22;18644;48.700;9.210;2023-02-27T01:02:29;1.50;54.00
32139;DHT22;18644;48.700;9.210;2023-02-27T01:04:56;1.50;54.00
32139;DHT22;18644;48.700;9.210;2023-02-27T01:07:23;1.50;54.00
32139;DHT22;18644;48.700;9.210;2023-02-27T01:09:52;1.50;54.00
32139;DHT22;18644;48.700;9.210;2023-02-27T01:12:18;1.50;54.00
32139;DHT22;18644;48.700;9.210;2023-02-27T01:14:45;1.50;54.00
32139;DHT22;18644;48.700;9.210;2023-02-27T01:17:12;1.50;54.10
32139;DHT22;18644;48.700;9.210;2023-02-27T01:19:39;1.50;54.10
32139;DHT22;18644;48.700;9.210;2023-02-27T01:22:06;1.50;54.10
32139;DHT22;18644;48.700;9.210;2023-02-27T01:24:33;1.50;54.10
32139;DHT22;18644;48.700;9.210;2023-02-27T01:27:01;1.40;54.10
32139;DHT22;18644;48.700;9.210;2023-02-27T01:29:28;1.50;54.20
32139;DHT22;18644;48.700;9.210;2023-02-27T01:31:55;1.40;54.20
32139;DHT22;18644;48.700;9.210;2023-02-27T01:34:22;1.40;54.20
32139;DHT22;18644;48.700;9.210;2023-02-27T01:36:49;1.40;54.30
32139;DHT22;18644;48.700;9.210;2023-02-27T01:39:16;1.40;54.30
32139;DHT22;18644;48.700;9.210;2023-02-27T01:41:42;1.40;54.30
32139;DHT22;18644;48.700;9.210;2023-02-27T01:44:12;1.40;54.40
32139;DHT22;18644;48.700;9.210;2023-02-27T01:46:40;1.40;54.40
32139;DHT22;18644;48.700;9.210;2023-02-27T01:49:10;1.40;54.40
32139;DHT22;18644;48.700;9.210;2023-02-27T01:51:42;1.40;54.50
32139;DHT22;18644;48.700;9.210;2023-02-27T01:54:15;1.30;54.50
32139;DHT22;18644;48.700;9.210;2023-02-27T01:56:44;1.30;54.50
32139;DHT22;18644;48.700;9.210;2023-02-27T01:59:12;1.30;54.50
32139;DHT22;18644;48.700;9.210;2023-02-27T02:01:40;1.30;54.60
32139;DHT22;18644;48.700;9.210;2023-02-27T02:04:13;1.30;54.60
32139;DHT22;18644;48.700;9.210;2023-02-27T02:06:47;1.30;54.70
32139;DHT22;18644;48.700;9.210;2023-02-27T02:09:17;1.30;54.70
32139;DHT22;18644;48.700;9.210;2023-02-27T02:11:45;1.30;54.80
32139;DHT22;18644;48.700;9.210;2023-02-27T02:14:14;1.30;54.80
32139;DHT22;18644;48.700;9.210;2023-02-27T02:20:04;1.30;54.90
32139;DHT22;18644;48.700;9.210;2023-02-27T02:23:12;1.30;54.90
32139;DHT22;18644;48.700;9.210;2023-02-27T02:26:16;1.30;55.00
32139;DHT22;18644;48.700;9.210;2023-02-27T02:32:49;1.20;55.10
32139;DHT22;18644;48.700;9.210;2023-02-27T02:35:56;1.20;55.10
32139;DHT22;18644;48.700;9.210;2023-02-27T02:38:55;1.20;55.10
32139;DHT22;18644;48.700;9.210;2023-02-27T02:41:52;1.20;55.10
32139;DHT22;18644;48.700;9.210;2023-02-27T02:44:28;1.20;55.10
32139;DHT22;18644;48.700;9.210;2023-02-27T02:47:05;1.20;55.20
32139;DHT22;18644;48.700;9.210;2023-02-27T02:49:44;1.20;55.20
32139;DHT22;18644;48.700;9.210;2023-02-27T02:52:22;1.20;55.30
32139;DHT22;18644;48.700;9.210;2023-02-27T02:54:57;1.20;55.40
32139;DHT22;18644;48.700;9.210;2023-02-27T02:57:30;1.20;55.40
32139;DHT22;18644;48.700;9.210;2023-02-27T03:00:00;1.20;55.40
32139;DHT22;18644;48.700;9.210;2023-02-27T03:02:33;1.20;55.50
32139;DHT22;18644;48.700;9.210;2023-02-27T03:05:05;1.20;55.50
32139;DHT22;18644;48.700;9.210;2023-02-27T03:07:37;1.10;55.40
32139;DHT22;18644;48.700;9.210;2023-02-27T03:10:08;1.20;55.60
32139;DHT22;18644;48.700;9.210;2023-02-27T03:12:39;1.20;55.60
32139;DHT22;18644;48.700;9.210;2023-02-27T03:15:12;1.20;55.50
32139;DHT22;18644;48.700;9.210;2023-02-27T03:17:46;1.20;55.60
32139;DHT22;18644;48.700;9.210;2023-02-27T03:20:19;1.10;55.60
32139;DHT22;18644;48.700;9.210;2023-02-27T03:22:51;1.10;55.60
32139;DHT22;18644;48.700;9.210;2023-02-27T03:25:24;1.10;55.70
32139;DHT22;18644;48.700;9.210;2023-02-27T03:27:52;1.10;55.80
32139;DHT22;18644;48.700;9.210;2023-02-27T03:30:26;1.10;55.90
32139;DHT22;18644;48.700;9.210;2023-02-27T03:32:59;1.10;55.70
32139;DHT22;18644;48.700;9.210;2023-02-27T03:35:33;1.10;55.70
32139;DHT22;18644;48.700;9.210;2023-02-27T03:38:10;1.10;55.70
32139;DHT22;18644;48.700;9.210;2023-02-27T03:40:49;1.10;55.80
32139;DHT22;18644;48.700;9.210;2023-02-27T03:43:24;1.10;55.80
32139;DHT22;18644;48.700;9.210;2023-02-27T03:45:58;1.10;55.80
32139;DHT22;18644;48.700;9.210;2023-02-27T03:48:28;1.10;55.90
32139;DHT22;18644;48.700;9.210;2023-02-27T03:50:55;1.10;55.90
32139;DHT22;18644;48.700;9.210;2023-02-27T03:53:29;1.10;55.90
32139;DHT22;18644;48.700;9.210;2023-02-27T03:56:00;1.00;56.00
32139;DHT22;18644;48.700;9.210;2023-02-27T03:58:29;1.00;56.00
32139;DHT22;18644;48.700;9.210;2023-02-27T04:00:56;1.00;56.00
32139;DHT22;18644;48.700;9.210;2023-02-27T04:03:23;1.00;56.00
32139;DHT22;18644;48.700;9.210;2023-02-27T04:05:50;1.00;56.00
32139;DHT22;18644;48.700;9.210;2023-02-27T04:08:35;1.00;56.10
32139;DHT22;18644;48.700;9.210;2023-02-27T04:11:24;1.00;56.10
32139;DHT22;18644;48.700;9.210;2023-02-27T04:14:21;1.00;56.20
32139;DHT22;18644;48.700;9.210;2023-02-27T04:17:11;1.00;56.20
32139;DHT22;18644;48.700;9.210;2023-02-27T04:20:01;1.00;56.20
32139;DHT22;18644;48.700;9.210;2023-02-27T04:22:37;1.00;56.30
32139;DHT22;18644;48.700;9.210;2023-02-27T04:25:21;1.00;56.30
32139;DHT22;18644;48.700;9.210;2023-02-27T04:27:56;1.00;56.40
32139;DHT22;18644;48.700;9.210;2023-02-27T04:30:27;0.90;56.40
32139;DHT22;18644;48.700;9.210;2023-02-27T04:33:02;0.90;56.40
32139;DHT22;18644;48.700;9.210;2023-02-27T04:35:36;0.90;56.50
32139;DHT22;18644;48.700;9.210;2023-02-27T04:38:16;0.90;56.50
32139;DHT22;18644;48.700;9.210;2023-02-27T04:40:48;0.90;56.60
32139;DHT22;18644;48.700;9.210;2023-02-27T04:43:21;0.90;56.60
32139;DHT22;18644;48.700;9.210;2023-02-27T04:45:50;0.90;56.60
32139;DHT22;18644;48.700;9.210;2023-02-27T04:48:21;0.90;56.60
32139;DHT22;18644;48.700;9.210;2023-02-27T04:50:53;0.90;56.60
32139;DHT22;18644;48.700;9.210;2023-02-27T04:53:24;0.90;56.70
32139;DHT22;18644;48.700;9.210;2023-02-27T04:55:54;0.90;56.70
32139;DHT22;18644;48.700;9.210;2023-02-27T04:58:28;0.90;56.70
32139;DHT22;18644;48.700;9.210;2023-02-27T05:01:00;0.90;56.60
32139;DHT22;18644;48.700;9.210;2023-02-27T05:03:32;0.90;56.60
32139;DHT22;18644;48.700;9.210;2023-02-27T05:06:01;0.90;56.60
32139;DHT22;18644;48.700;9.210;2023-02-27T05:08:32;0.90;56.60
32139;DHT22;18644;48.700;9.210;2023-02-27T05:11:06;0.90;56.70
32139;DHT22;18644;48.700;9.210;2023-02-27T05:13:39;0.90;56.70
32139;DHT22;18644;48.700;9.210;2023-02-27T05:16:13;0.90;56.80
32139;DHT22;18644;48.700;9.210;2023-02-27T05:18:44;0.80;56.80
32139;DHT22;18644;48.700;9.210;2023-02-27T05:21:20;0.90;56.90
32139;DHT22;18644;48.700;9.210;2023-02-27T05:23:57;0.80;56.90
32139;DHT22;18644;48.700;9.210;2023-02-27T05:26:40;0.80;56.90
32139;DHT22;18644;48.700;9.210;2023-02-27T05:29:23;0.80;56.90
32139;DHT22;18644;48.700;9.210;2023-02-27T05:31:55;0.80;57.00
32139;DHT22;18644;48.700;9.210;2023-02-27T05:34:35;0.80;57.00
32139;DHT22;18644;48.700;9.210;2023-02-27T05:37:06;0.80;56.90
32139;DHT22;18644;48.700;9.210;2023-02-27T05:39:38;0.80;56.90
32139;DHT22;18644;48.700;9.210;2023-02-27T05:42:08;0.80;56.90
32139;DHT22;18644;48.700;9.210;2023-02-27T05:44:44;0.80;57.00
32139;DHT22;18644;48.700;9.210;2023-02-27T05:47:16;0.80;57.00
32139;DHT22;18644;48.700;9.210;2023-02-27T05:49:48;0.80;57.00
32139;DHT22;18644;48.700;9.210;2023-02-27T05:52:20;0.80;57.00
32139;DHT22;18644;48.700;9.210;2023-02-27T05:54:54;0.80;57.00
32139;DHT22;18644;48.700;9.210;2023-02-27T05:57:28;0.80;56.90
32139;DHT22;18644;48.700;9.210;2023-02-27T06:00:02;0.80;57.00
32139;DHT22;18644;48.700;9.210;2023-02-27T06:02:34;0.80;57.00
32139;DHT22;18644;48.700;9.210;2023-02-27T06:05:01;0.80;57.00
32139;DHT22;18644;48.700;9.210;2023-02-27T06:07:30;0.80;57.10
32139;DHT22;18644;48.700;9.210;2023-02-27T06:09:57;0.80;57.10
32139;DHT22;18644;48.700;9.210;2023-02-27T06:12:24;0.80;57.10
32139;DHT22;18644;48.700;9.210;2023-02-27T06:14:51;0.80;57.10
32139;DHT22;18644;48.700;9.210;2023-02-27T06:17:19;0.80;57.10
32139;DHT22;18644;48.700;9.210;2023-02-27T06:19:46;0.80;57.10
32139;DHT22;18644;48.700;9.210;2023-02-27T06:22:13;0.80;57.10
32139;DHT22;18644;48.700;9.210;2023-02-27T06:24:40;0.80;57.10
32139;DHT22;18644;48.700;9.210;2023-02-27T06:27:07;0.80;57.10
32139;DHT22;18644;48.700;9.210;2023-02-27T06:29:34;0.80;57.20
32139;DHT22;18644;48.700;9.210;2023-02-27T06:32:01;0.80;57.20
32139;DHT22;18644;48.700;9.210;2023-02-27T06:34:29;0.80;57.20
32139;DHT22;18644;48.700;9.210;2023-02-27T06:36:56;0.80;57.20
32139;DHT22;18644;48.700;9.210;2023-02-27T06:39:22;0.80;57.30
32139;DHT22;18644;48.700;9.210;2023-02-27T06:41:49;0.80;57.20
32139;DHT22;18644;48.700;9.210;2023-02-27T06:44:16;0.80;57.30
32139;DHT22;18644;48.700;9.210;2023-02-27T06:46:44;0.90;57.30
32139;DHT22;18644;48.700;9.210;2023-02-27T06:49:11;0.90;57.30
32139;DHT22;18644;48.700;9.210;2023-02-27T06:51:39;0.90;57.30
32139;DHT22;18644;48.700;9.210;2023-02-27T06:54:06;0.90;57.40
32139;DHT22;18644;48.700;9.210;2023-02-27T06:56:33;0.90;57.40
32139;DHT22;18644;48.700;9.210;2023-02-27T06:59:00;0.90;57.40
32139;DHT22;18644;48.700;9.210;2023-02-27T07:01:27;0.90;57.40
32139;DHT22;18644;48.700;9.210;2023-02-27T07:03:53;1.00;57.50
32139;DHT22;18644;48.700;9.210;2023-02-27T07:06:20;1.00;57.50
32139;DHT22;18644;48.700;9.210;2023-02-27T07:08:48;1.00;57.50
32139;DHT22;18644;48.700;9.210;2023-02-27T07:11:15;1.10;57.60
32139;DHT22;18644;48.700;9.210;2023-02-27T07:13:42;1.20;58.10
32139;DHT22;18644;48.700;9.210;2023-02-27T07:16:09;1.20;57.50
32139;DHT22;18644;48.700;9.210;2023-02-27T07:18:36;1.20;57.40
32139;DHT22;18644;48.700;9.210;2023-02-27T07:21:03;1.30;57.40
32139;DHT22;18644;48.700;9.210;2023-02-27T07:23:30;1.30;57.40
32139;DHT22;18644;48.700;9.210;2023-02-27T07:25:58;1.40;57.40
32139;DHT22;18644;48.700;9.210;2023-02-27T07:28:25;1.40;57.30
32139;DHT22;18644;48.700;9.210;2023-02-27T07:30:52;1.50;57.30
32139;DHT22;18644;48.700;9.210;2023-02-27T07:33:20;1.60;57.30
32139;DHT22;18644;48.700;9.210;2023-02-27T07:35:48;1.60;57.20
32139;DHT22;18644;48.700;9.210;2023-02-27T07:38:15;1.70;57.10
32139;DHT22;18644;48.700;9.210;2023-02-27T07:40:43;1.80;57.10
32139;DHT22;18644;48.700;9.210;2023-02-27T07:43:11;1.80;56.90
32139;DHT22;18644;48.700;9.210;2023-02-27T07:45:38;1.90;56.90
32139;DHT22;18644;48.700;9.210;2023-02-27T07:48:06;2.00;56.80
32139;DHT22;18644;48.700;9.210;2023-02-27T07:50:32;2.00;56.70
32139;DHT22;18644;48.700;9.210;2023-02-27T07:52:59;2.10;56.60
32139;DHT22;18644;48.700;9.210;2023-02-27T07:55:26;2.20;56.50
32139;DHT22;18644;48.700;9.210;2023-02-27T07:57:53;2.20;56.40
32139;DHT22;18644;48.700;9.210;2023-02-27T08:00:21;2.40;56.40
32139;DHT22;18644;48.700;9.210;2023-02-27T08:02:48;2.50;56.40
32139;DHT22;18644;48.700;9.210;2023-02-27T08:05:15;2.50;56.20
32139;DHT22;18644;48.700;9.210;2023-02-27T08:07:42;2.60;56.10
32139;DHT22;18644;48.700;9.210;2023-02-27T08:10:11;2.70;56.00
32139;DHT22;18644;48.700;9.210;2023-02-27T08:12:40;2.70;55.80
32139;DHT22;18644;48.700;9.210;2023-02-27T08:15:08;2.80;55.60
32139;DHT22;18644;48.700;9.210;2023-02-27T08:17:37;2.80;55.50
32139;DHT22;18644;48.700;9.210;2023-02-27T08:20:05;2.90;55.50
32139;DHT22;18644;48.700;9.210;2023-02-27T08:22:36;3.00;56.10
32139;DHT22;18644;48.700;9.210;2023-02-27T08:25:04;3.10;55.50
32139;DHT22;18644;48.700;9.210;2023-02-27T08:27:32;3.20;55.30
32139;DHT22;18644;48.700;9.210;2023-02-27T08:29:59;3.30;55.20
32139;DHT22;18644;48.700;9.210;2023-02-27T08:32:26;3.40;55.10
32139;DHT22;18644;48.700;9.210;2023-02-27T08:34:54;3.40;55.10
32139;DHT22;18644;48.700;9.210;2023-02-27T08:37:21;3.50;54.90
32139;DHT22;18644;48.700;9.210;2023-02-27T08:39:48;3.60;54.80
32139;DHT22;18644;48.700;9.210;2023-02-27T08:42:15;3.70;55.10
32139;DHT22;18644;48.700;9.210;2023-02-27T08:44:42;3.80;54.40
32139;DHT22;18644;48.700;9.210;2023-02-27T08:47:09;3.80;54.20
32139;DHT22;18644;48.700;9.210;2023-02-27T08:49:36;3.90;53.90
32139;DHT22;18644;48.700;9.210;2023-02-27T08:52:04;4.00;53.60
32139;DHT22;18644;48.700;9.210;2023-02-27T08:54:33;4.10;53.50
32139;DHT22;18644;48.700;9.210;2023-02-27T08:57:01;4.10;53.50
32139;DHT22;18644;48.700;9.210;2023-02-27T08:59:28;4.20;53.70
32139;DHT22;18644;48.700;9.210;2023-02-27T09:01:55;4.30;53.70
32139;DHT22;18644;48.700;9.210;2023-02-27T09:04:22;4.40;53.70
32139;DHT22;18644;48.700;9.210;2023-02-27T09:06:49;4.50;53.60
32139;DHT22;18644;48.700;9.210;2023-02-27T09:09:19;4.60;53.30
32139;DHT22;18644;48.700;9.210;2023-02-27T09:11:49;4.80;53.20
32139;DHT22;18644;48.700;9.210;2023-02-27T09:14:16;4.90;53.20
32139;DHT22;18644;48.700;9.210;2023-02-27T09:16:43;5.00;53.00
32139;DHT22;18644;48.700;9.210;2023-02-27T09:19:11;5.10;52.80
32139;DHT22;18644;48.700;9.210;2023-02-27T09:21:38;5.20;52.50
32139;DHT22;18644;48.700;9.210;2023-02-27T09:24:06;5.30;52.00
32139;DHT22;18644;48.700;9.210;2023-02-27T09:26:34;5.40;52.00
32139;DHT22;18644;48.700;9.210;2023-02-27T09:29:02;5.40;51.40
32139;DHT22;18644;48.700;9.210;2023-02-27T09:31:28;5.50;51.50
32139;DHT22;18644;48.700;9.210;2023-02-27T09:33:55;5.60;51.40
32139;DHT22;18644;48.700;9.210;2023-02-27T09:36:23;5.70;51.20
32139;DHT22;18644;48.700;9.210;2023-02-27T09:38:50;5.70;50.80
32139;DHT22;18644;48.700;9.210;2023-02-27T09:41:31;5.80;50.90
32139;DHT22;18644;48.700;9.210;2023-02-27T09:44:19;6.00;51.00
32139;DHT22;18644;48.700;9.210;2023-02-27T09:46:50;6.10;50.10
32139;DHT22;18644;48.700;9.210;2023-02-27T09:49:19;6.10;50.10
32139;DHT22;18644;48.700;9.210;2023-02-27T09:51:50;6.20;49.60
32139;DHT22;18644;48.700;9.210;2023-02-27T09:54:17;6.20;49.20
32139;DHT22;18644;48.700;9.210;2023-02-27T09:56:48;6.30;49.60
32139;DHT22;18644;48.700;9.210;2023-02-27T09:59:24;6.40;50.30
32139;DHT22;18644;48.700;9.210;2023-02-27T10:01:59;6.50;49.70
32139;DHT22;18644;48.700;9.210;2023-02-27T10:04:38;6.60;49.60
32139;DHT22;18644;48.700;9.210;2023-02-27T10:07:13;6.70;49.70
32139;DHT22;18644;48.700;9.210;2023-02-27T10:09:51;6.80;49.70
32139;DHT22;18644;48.700;9.210;2023-02-27T10:12:33;6.90;48.70
32139;DHT22;18644;48.700;9.210;2023-02-27T10:15:13;7.00;48.80
32139;DHT22;18644;48.700;9.210;2023-02-27T10:17:44;7.10;48.00
32139;DHT22;18644;48.700;9.210;2023-02-27T10:20:20;7.20;48.50
32139;DHT22;18644;48.700;9.210;2023-02-27T10:22:52;7.30;47.80
32139;DHT22;18644;48.700;9.210;2023-02-27T10:25:20;7.40;47.50
32139;DHT22;18644;48.700;9.210;2023-02-27T10:27:54;7.50;47.70
32139;DHT22;18644;48.700;9.210;2023-02-27T10:30:24;7.60;47.20
32139;DHT22;18644;48.700;9.210;2023-02-27T10:33:03;7.60;47.50
32139;DHT22;18644;48.700;9.210;2023-02-27T10:35:34;7.70;46.90
32139;DHT22;18644;48.700;9.210;2023-02-27T10:38:05;7.80;46.80
32139;DHT22;18644;48.700;9.210;2023-02-27T10:40:38;7.80;46.50
32139;DHT22;18644;48.700;9.210;2023-02-27T10:43:07;7.90;46.00
32139;DHT22;18644;48.700;9.210;2023-02-27T10:45:34;7.90;45.20
32139;DHT22;18644;48.700;9.210;2023-02-27T10:48:01;7.90;44.90
32139;DHT22;18644;48.700;9.210;2023-02-27T10:50:32;7.90;45.00
32139;DHT22;18644;48.700;9.210;2023-02-27T10:53:02;7.90;45.50
32139;DHT22;18644;48.700;9.210;2023-02-27T10:55:33;7.80;44.40
32139;DHT22;18644;48.700;9.210;2023-02-27T10:58:04;7.80;44.30
32139;DHT22;18644;48.700;9.210;2023-02-27T11:00:42;7.80;44.00
32139;DHT22;18644;48.700;9.210;2023-02-27T11:03:19;7.80;44.20
32139;DHT22;18644;48.700;9.210;2023-02-27T11:05:53;7.70;44.00
32139;DHT22;18644;48.700;9.210;2023-02-27T11:08:23;7.60;43.50
32139;DHT22;18644;48.700;9.210;2023-02-27T11:10:59;7.50;43.50
32139;DHT22;18644;48.700;9.210;2023-02-27T11:13:29;7.40;43.50
32139;DHT22;18644;48.700;9.210;2023-02-27T11:16:10;7.30;43.90
32139;DHT22;18644;48.700;9.210;2023-02-27T11:18:40;7.20;43.80
32139;DHT22;18644;48.700;9.210;2023-02-27T11:21:16;7.10;43.90
32139;DHT22;18644;48.700;9.210;2023-02-27T11:23:50;7.10;43.80
32139;DHT22;18644;48.700;9.210;2023-02-27T11:26:22;7.00;43.90
32139;DHT22;18644;48.700;9.210;2023-02-27T11:29:18;6.90;44.10
32139;DHT22;18644;48.700;9.210;2023-02-27T11:31:51;6.90;44.60
32139;DHT22;18644;48.700;9.210;2023-02-27T11:34:22;7.00;44.40
32139;DHT22;18644;48.700;9.210;2023-02-27T11:36:54;7.00;44.00
32139;DHT22;18644;48.700;9.210;2023-02-27T11:39:29;7.10;44.70
32139;DHT22;18644;48.700;9.210;2023-02-27T11:42:06;7.30;45.20
32139;DHT22;18644;48.700;9.210;2023-02-27T11:44:46;7.50;45.10
32139;DHT22;18644;48.700;9.210;2023-02-27T11:47:30;7.70;44.90
32139;DHT22;18644;48.700;9.210;2023-02-27T11:50:08;7.90;44.80
32139;DHT22;18644;48.700;9.210;2023-02-27T11:53:06;8.00;43.60
32139;DHT22;18644;48.700;9.210;2023-02-27T11:55:43;8.10;43.70
32139;DHT22;18644;48.700;9.210;2023-02-27T11:58:14;8.20;43.40
32139;DHT22;18644;48.700;9.210;2023-02-27T12:00:48;8.10;43.50
32139;DHT22;18644;48.700;9.210;2023-02-27T12:03:22;8.20;43.40
32139;DHT22;18644;48.700;9.210;2023-02-27T12:05:53;8.30;43.70
32139;DHT22;18644;48.700;9.210;2023-02-27T12:08:29;8.40;44.10
32139;DHT22;18644;48.700;9.210;2023-02-27T12:11:01;8.60;44.10
32139;DHT22;18644;48.700;9.210;2023-02-27T12:13:33;8.80;43.10
32139;DHT22;18644;48.700;9.210;2023-02-27T12:16:16;8.90;42.40
32139;DHT22;18644;48.700;9.210;2023-02-27T12:18:50;9.00;42.40
32139;DHT22;18644;48.700;9.210;2023-02-27T12:21:22;9.10;42.50
32139;DHT22;18644;48.700;9.210;2023-02-27T12:23:54;9.20;42.80
32139;DHT22;18644;48.700;9.210;2023-02-27T12:26:28;9.30;43.00
32139;DHT22;18644;48.700;9.210;2023-02-27T12:29:00;9.40;42.30
32139;DHT22;18644;48.700;9.210;2023-02-27T12:31:37;9.40;42.30
32139;DHT22;18644;48.700;9.210;2023-02-27T12:34:17;9.50;42.00
32139;DHT22;18644;48.700;9.210;2023-02-27T12:36:50;9.60;41.30
32139;DHT22;18644;48.700;9.210;2023-02-27T12:39:20;9.70;41.00
32139;DHT22;18644;48.700;9.210;2023-02-27T12:45:17;9.80;41.30
32139;DHT22;18644;48.700;9.210;2023-02-27T12:48:14;9.80;40.90
32139;DHT22;18644;48.700;9.210;2023-02-27T12:50:55;9.80;41.00
32139;DHT22;18644;48.700;9.210;2023-02-27T12:53:37;9.90;41.50
32139;DHT22;18644;48.700;9.210;2023-02-27T12:56:33;9.90;41.10
32139;DHT22;18644;48.700;9.210;2023-02-27T12:59:13;9.90;40.00
32139;DHT22;18644;48.700;9.210;2023-02-27T13:01:59;9.80;39.90
32139;DHT22;18644;48.700;9.210;2023-02-27T13:04:38;9.80;40.00
32139;DHT22;18644;48.700;9.210;2023-02-27T13:07:22;9.70;40.00
32139;DHT22;18644;48.700;9.210;2023-02-27T13:09:54;9.60;39.60
32139;DHT22;18644;48.700;9.210;2023-02-27T13:12:29;9.40;39.50
32139;DHT22;18644;48.700;9.210;2023-02-27T13:15:03;9.30;39.50
32139;DHT22;18644;48.700;9.210;2023-02-27T13:17:36;9.10;39.70
32139;DHT22;18644;48.700;9.210;2023-02-27T13:20:25;9.10;39.50
32139;DHT22;18644;48.700;9.210;2023-02-27T13:23:04;8.90;39.70
32139;DHT22;18644;48.700;9.210;2023-02-27T13:25:38;8.80;40.00
32139;DHT22;18644;48.700;9.210;2023-02-27T13:28:10;8.70;40.00
32139;DHT22;18644;48.700;9.210;2023-02-27T13:30:40;8.60;39.90
32139;DHT22;18644;48.700;9.210;2023-02-27T13:33:16;8.50;39.80
32139;DHT22;18644;48.700;9.210;2023-02-27T13:35:52;8.40;39.30
32139;DHT22;18644;48.700;9.210;2023-02-27T13:38:33;8.30;39.30
32139;DHT22;18644;48.700;9.210;2023-02-27T13:41:33;8.20;39.70
32139;DHT22;18644;48.700;9.210;2023-02-27T13:47:36;8.00;40.20
32139;DHT22;18644;48.700;9.210;2023-02-27T13:50:48;8.00;40.40
32139;DHT22;18644;48.700;9.210;2023-02-27T13:53:19;7.90;40.40
32139;DHT22;18644;48.700;9.210;2023-02-27T13:55:51;7.90;40.80
32139;DHT22;18644;48.700;9.210;2023-02-27T13:58:22;7.80;40.70
32139;DHT22;18644;48.700;9.210;2023-02-27T14:00:55;7.80;40.20
32139;DHT22;18644;48.700;9.210;2023-02-27T14:03:26;7.80;40.50
32139;DHT22;18644;48.700;9.210;2023-02-27T14:06:00;7.70;40.70
32139;DHT22;18644;48.700;9.210;2023-02-27T14:08:37;7.70;40.70
32139;DHT22;18644;48.700;9.210;2023-02-27T14:11:19;7.70;41.00
32139;DHT22;18644;48.700;9.210;2023-02-27T14:14:00;7.60;41.10
32139;DHT22;18644;48.700;9.210;2023-02-27T14:16:58;7.60;40.60
32139;DHT22;18644;48.700;9.210;2023-02-27T14:19:52;7.60;40.80
32139;DHT22;18644;48.700;9.210;2023-02-27T14:22:42;7.50;40.70
32139;DHT22;18644;48.700;9.210;2023-02-27T14:25:36;7.50;40.80
32139;DHT22;18644;48.700;9.210;2023-02-27T14:28:14;7.50;41.00
32139;DHT22;18644;48.700;9.210;2023-02-27T14:30:50;7.50;40.50
32139;DHT22;18644;48.700;9.210;2023-02-27T14:33:22;7.50;40.50
32139;DHT22;18644;48.700;9.210;2023-02-27T14:36:01;7.50;41.30
32139;DHT22;18644;48.700;9.210;2023-02-27T14:38:32;7.50;40.90
32139;DHT22;18644;48.700;9.210;2023-02-27T14:41:09;7.50;41.20
32139;DHT22;18644;48.700;9.210;2023-02-27T14:43:44;7.50;41.30
32139;DHT22;18644;48.700;9.210;2023-02-27T14:46:24;7.50;41.40
32139;DHT22;18644;48.700;9.210;2023-02-27T14:48:56;7.50;41.20
32139;DHT22;18644;48.700;9.210;2023-02-27T14:51:25;7.60;41.40
32139;DHT22;18644;48.700;9.210;2023-02-27T14:54:04;7.50;41.10
32139;DHT22;18644;48.700;9.210;2023-02-27T14:56:32;7.50;40.90
32139;DHT22;18644;48.700;9.210;2023-02-27T14:59:00;7.40;40.60
32139;DHT22;18644;48.700;9.210;2023-02-27T15:01:27;7.40;40.60
32139;DHT22;18644;48.700;9.210;2023-02-27T15:04:00;7.30;40.40
32139;DHT22;18644;48.700;9.210;2023-02-27T15:06:33;7.30;40.20
32139;DHT22;18644;48.700;9.210;2023-02-27T15:09:04;7.20;40.40
32139;DHT22;18644;48.700;9.210;2023-02-27T15:11:32;7.10;40.40
32139;DHT22;18644;48.700;9.210;2023-02-27T15:14:01;7.00;40.70
32139;DHT22;18644;48.700;9.210;2023-02-27T15:16:34;6.90;40.80
32139;DHT22;18644;48.700;9.210;2023-02-27T15:19:12;6.90;40.80
32139;DHT22;18644;48.700;9.210;2023-02-27T15:21:43;6.90;40.80
32139;DHT22;18644;48.700;9.210;2023-02-27T15:24:26;6.80;41.10
32139;DHT22;18644;48.700;9.210;2023-02-27T15:26:56;6.80;41.30
32139;DHT22;18644;48.700;9.210;2023-02-27T15:29:31;6.80;41.30
32139;DHT22;18644;48.700;9.210;2023-02-27T15:32:01;6.70;41.10
32139;DHT22;18644;48.700;9.210;2023-02-27T15:34:30;6.70;41.10
32139;DHT22;18644;48.700;9.210;2023-02-27T15:36:58;6.60;41.10
32139;DHT22;18644;48.700;9.210;2023-02-27T15:39:28;6.60;41.00
32139;DHT22;18644;48.700;9.210;2023-02-27T15:42:00;6.50;40.70
32139;DHT22;18644;48.700;9.210;2023-02-27T15:44:32;6.50;41.00
32139;DHT22;18644;48.700;9.210;2023-02-27T15:47:02;6.40;41.10
32139;DHT22;18644;48.700;9.210;2023-02-27T15:49:29;6.40;41.10
32139;DHT22;18644;48.700;9.210;2023-02-27T15:51:59;6.30;41.20
32139;DHT22;18644;48.700;9.210;2023-02-27T15:54:33;6.30;41.50
32139;DHT22;18644;48.700;9.210;2023-02-27T15:57:02;6.20;41.50
32139;DHT22;18644;48.700;9.210;2023-02-27T15:59:35;6.20;41.60
32139;DHT22;18644;48.700;9.210;2023-02-27T16:02:04;6.10;41.60
32139;DHT22;18644;48.700;9.210;2023-02-27T16:04:32;6.10;41.50
32139;DHT22;18644;48.700;9.210;2023-02-27T16:07:03;6.10;41.50
32139;DHT22;18644;48.700;9.210;2023-02-27T16:09:34;6.00;41.40
32139;DHT22;18644;48.700;9.210;2023-02-27T16:12:10;6.00;41.40
32139;DHT22;18644;48.700;9.210;2023-02-27T16:14:43;6.00;41.70
32139;DHT22;18644;48.700;9.210;2023-02-27T16:17:23;5.90;41.90
32139;DHT22;18644;48.700;9.210;2023-02-27T16:19:52;5.90;41.90
32139;DHT22;18644;48.700;9.210;2023-02-27T16:22:20;5.90;41.80
32139;DHT22;18644;48.700;9.210;2023-02-27T16:24:49;5.80;42.30
32139;DHT22;18644;48.700;9.210;2023-02-27T16:27:21;5.80;41.80
32139;DHT22;18644;48.700;9.210;2023-02-27T16:29:50;5.80;41.90
32139;DHT22;18644;48.700;9.210;2023-02-27T16:32:23;5.70;42.00